createdAt,value
2023-02-07T00:01:55.991Z,41.59
2023-02-07T00:04:28.462Z,41.95
2023-02-07T00:07:00.974Z,41.47
2023-02-07T00:09:33.556Z,41.11
2023-02-07T00:12:06.441Z,41.56
2023-02-07T00:14:39.096Z,41.60
2023-02-07T00:17:11.900Z,41.45
2023-02-07T00:19:44.369Z,41.65
2023-02-07T00:22:17.075Z,42.08
2023-02-07T00:24:49.588Z,42.48
2023-02-07T00:27:22.135Z,41.35
2023-02-07T00:29:54.629Z,41.79
2023-02-07T00:32:31.935Z,41.46
2023-02-07T00:35:05.026Z,42.41
2023-02-07T00:37:37.525Z,41.65
2023-02-07T00:40:10.485Z,42.37
2023-02-07T00:42:43.040Z,41.48
2023-02-07T00:45:15.683Z,42.32
2023-02-07T00:47:48.272Z,42.00
2023-02-07T00:50:20.737Z,42.01
2023-02-07T00:52:53.400Z,42.23
2023-02-07T00:55:25.859Z,41.64
2023-02-07T00:57:59.210Z,41.87
2023-02-07T01:00:31.806Z,41.96
2023-02-07T01:03:04.293Z,42.05
2023-02-07T01:05:37.491Z,42.14
2023-02-07T01:08:10.372Z,42.03
2023-02-07T01:10:46.137Z,42.28
2023-02-07T01:13:18.763Z,41.95
2023-02-07T01:15:51.354Z,42.20
2023-02-07T01:18:23.968Z,41.78
2023-02-07T01:20:56.781Z,42.30
2023-02-07T01:23:29.348Z,41.89
2023-02-07T01:26:05.860Z,42.21
2023-02-07T01:28:38.529Z,42.66
2023-02-07T01:31:13.613Z,42.46
2023-02-07T01:33:46.206Z,42.54
2023-02-07T01:36:18.807Z,42.36
2023-02-07T01:38:54.056Z,41.86
2023-02-07T01:41:27.886Z,41.58
2023-02-07T01:44:24.729Z,41.64
2023-02-07T01:46:57.293Z,41.71
2023-02-07T01:49:36.030Z,42.14
2023-02-07T01:52:17.097Z,42.65
2023-02-07T01:54:55.493Z,41.94
2023-02-07T01:57:29.053Z,42.40
2023-02-07T02:00:03.487Z,42.34
2023-02-07T02:02:37.521Z,41.81
2023-02-07T02:05:12.046Z,41.71
2023-02-07T02:07:44.695Z,42.45
2023-02-07T02:10:46.232Z,41.75
2023-02-07T02:13:31.980Z,42.58
2023-02-07T02:16:30.035Z,42.91
2023-02-07T02:19:27.100Z,41.89
2023-02-07T02:22:38.448Z,42.50
2023-02-07T02:25:35.223Z,41.99
2023-02-07T02:28:44.838Z,42.60
2023-02-07T02:32:02.308Z,41.93
2023-02-07T02:34:57.647Z,42.51
2023-02-07T02:37:48.487Z,42.36
2023-02-07T02:40:43.972Z,41.77
2023-02-07T02:43:41.852Z,42.44
2023-02-07T02:46:31.607Z,42.39
2023-02-07T02:49:07.912Z,42.32
2023-02-07T02:51:40.541Z,41.99
2023-02-07T02:54:34.723Z,41.97
2023-02-07T02:57:19.109Z,41.95
2023-02-07T03:00:02.702Z,41.81
2023-02-07T03:03:06.626Z,42.55
2023-02-07T03:06:13.859Z,42.48
2023-02-07T03:09:06.154Z,42.63
2023-02-07T03:12:11.721Z,41.86
2023-02-07T03:15:02.067Z,42.30
2023-02-07T03:17:43.323Z,41.96
2023-02-07T03:20:31.974Z,42.07
2023-02-07T03:23:08.912Z,42.33
2023-02-07T03:25:44.703Z,42.05
2023-02-07T03:28:21.778Z,42.33
2023-02-07T03:30:58.599Z,41.66
2023-02-07T03:33:32.134Z,42.10
2023-02-07T03:36:19.904Z,42.17
2023-02-07T03:38:52.941Z,42.11
2023-02-07T03:41:40.034Z,42.09
2023-02-07T03:44:17.400Z,42.48
2023-02-07T03:46:51.152Z,42.41
2023-02-07T03:49:24.064Z,41.98
2023-02-07T03:51:56.831Z,42.53
2023-02-07T03:54:29.747Z,41.78
2023-02-07T03:57:02.385Z,42.19
2023-02-07T03:59:35.105Z,41.84
2023-02-07T04:02:07.820Z,42.49
2023-02-07T04:04:40.690Z,42.57
2023-02-07T04:07:13.456Z,42.73
2023-02-07T04:09:45.920Z,42.23
2023-02-07T04:12:18.430Z,42.93
2023-02-07T04:14:50.889Z,42.32
2023-02-07T04:17:23.392Z,42.55
2023-02-07T04:19:56.199Z,42.56
2023-02-07T04:22:29.775Z,42.13
2023-02-07T04:25:02.523Z,42.02
2023-02-07T04:27:35.128Z,42.23
2023-02-07T04:30:08.836Z,42.54
2023-02-07T04:32:41.425Z,42.44
2023-02-07T04:35:14.176Z,42.57
2023-02-07T04:37:47.015Z,42.66
2023-02-07T04:40:19.692Z,42.27
2023-02-07T04:42:52.407Z,42.48
2023-02-07T04:45:25.173Z,42.05
2023-02-07T04:47:57.670Z,42.11
2023-02-07T04:50:30.350Z,42.21
2023-02-07T04:53:02.948Z,42.64
2023-02-07T04:55:37.412Z,42.20
2023-02-07T04:58:10.342Z,42.26
2023-02-07T05:00:42.935Z,42.28
2023-02-07T05:03:15.599Z,42.13
2023-02-07T05:05:48.226Z,42.65
2023-02-07T05:08:22.905Z,41.75
2023-02-07T05:10:56.477Z,42.71
2023-02-07T05:13:29.088Z,41.65
2023-02-07T05:16:05.804Z,42.27
2023-02-07T05:18:38.331Z,42.28
2023-02-07T05:21:11.464Z,41.96
2023-02-07T05:23:44.429Z,42.03
2023-02-07T05:26:17.332Z,42.75
2023-02-07T05:28:49.863Z,42.05
2023-02-07T05:31:42.451Z,42.56
2023-02-07T05:34:15.039Z,42.52
2023-02-07T05:36:47.612Z,42.13
2023-02-07T05:39:20.275Z,42.57
2023-02-07T05:41:52.871Z,42.47
2023-02-07T05:44:25.450Z,42.63
2023-02-07T05:46:58.026Z,42.78
2023-02-07T05:49:30.676Z,42.41
2023-02-07T05:52:03.536Z,42.24
2023-02-07T05:54:36.076Z,42.45
2023-02-07T05:57:09.204Z,42.24
2023-02-07T05:59:41.685Z,42.73
2023-02-07T06:02:14.446Z,41.99
2023-02-07T06:04:47.000Z,42.38
2023-02-07T06:07:19.608Z,42.60
2023-02-07T06:09:52.090Z,42.44
2023-02-07T06:12:24.633Z,42.45
2023-02-07T06:14:57.276Z,42.23
2023-02-07T06:17:29.823Z,42.20
2023-02-07T06:20:02.464Z,42.33
2023-02-07T06:22:34.960Z,42.63
2023-02-07T06:25:11.640Z,42.31
2023-02-07T06:27:44.214Z,42.48
2023-02-07T06:30:16.881Z,42.43
2023-02-07T06:32:49.562Z,42.08
2023-02-07T06:35:22.129Z,42.17
2023-02-07T06:37:55.270Z,42.22
2023-02-07T06:40:27.879Z,41.84
2023-02-07T06:43:01.154Z,42.21
2023-02-07T06:45:33.683Z,41.21
2023-02-07T06:48:07.814Z,41.15
2023-02-07T06:50:40.375Z,40.97
2023-02-07T06:53:12.836Z,41.28
2023-02-07T06:55:45.376Z,40.42
2023-02-07T06:58:17.893Z,40.86
2023-02-07T07:00:50.494Z,41.00
2023-02-07T07:03:27.078Z,40.88
2023-02-07T07:06:06.226Z,41.17
2023-02-07T07:08:38.807Z,40.76
2023-02-07T07:11:11.406Z,41.00
2023-02-07T07:13:43.938Z,40.52
2023-02-07T07:16:16.657Z,40.49
2023-02-07T07:18:52.170Z,40.36
2023-02-07T07:21:26.720Z,40.69
2023-02-07T07:24:04.831Z,40.98
2023-02-07T07:26:52.813Z,41.17
2023-02-07T07:29:25.394Z,40.33
2023-02-07T07:32:06.957Z,40.49
2023-02-07T07:34:49.856Z,40.04
2023-02-07T07:37:22.337Z,40.56
2023-02-07T07:39:57.964Z,40.04
2023-02-07T07:42:30.564Z,40.20
2023-02-07T07:45:04.248Z,40.17
2023-02-07T07:47:36.772Z,40.45
2023-02-07T07:50:10.551Z,40.45
2023-02-07T07:52:43.344Z,40.20
2023-02-07T07:55:15.937Z,40.32
2023-02-07T07:57:54.965Z,39.93
2023-02-07T08:00:27.670Z,40.33
2023-02-07T08:03:06.112Z,40.11
2023-02-07T08:05:39.310Z,39.92
2023-02-07T08:08:12.803Z,41.02
2023-02-07T08:10:46.102Z,40.71
2023-02-07T08:13:20.047Z,40.10
2023-02-07T08:15:52.861Z,39.92
2023-02-07T08:18:25.564Z,40.67
2023-02-07T08:20:58.089Z,40.02
2023-02-07T08:23:30.628Z,39.66
2023-02-07T08:26:04.564Z,40.58
2023-02-07T08:28:37.250Z,40.48
2023-02-07T08:31:10.025Z,40.09
2023-02-07T08:33:42.547Z,40.00
2023-02-07T08:36:15.268Z,39.89
2023-02-07T08:38:47.847Z,40.02
2023-02-07T08:41:20.345Z,40.38
2023-02-07T08:43:52.880Z,40.59
2023-02-07T08:46:25.565Z,40.07
2023-02-07T08:48:58.361Z,40.01
2023-02-07T08:51:30.861Z,39.89
2023-02-07T08:54:03.567Z,39.35
2023-02-07T08:56:36.162Z,39.64
2023-02-07T08:59:08.677Z,39.70
2023-02-07T09:01:50.042Z,39.09
2023-02-07T09:04:23.646Z,39.24
2023-02-07T09:06:57.031Z,38.95
2023-02-07T09:09:33.302Z,38.91
2023-02-07T09:12:07.131Z,39.47
2023-02-07T09:14:42.442Z,39.16
2023-02-07T09:17:14.971Z,39.20
2023-02-07T09:19:47.444Z,39.65
2023-02-07T09:22:20.051Z,40.00
2023-02-07T09:24:52.616Z,39.33
2023-02-07T09:27:25.157Z,39.43
2023-02-07T09:30:01.090Z,40.21
2023-02-07T09:32:33.560Z,39.70
2023-02-07T09:35:08.426Z,39.27
2023-02-07T09:37:49.209Z,40.06
2023-02-07T09:40:23.421Z,39.35
2023-02-07T09:43:36.437Z,40.10
2023-02-07T09:46:52.272Z,40.19
2023-02-07T09:49:52.050Z,39.78
2023-02-07T09:52:49.579Z,39.23
2023-02-07T09:55:45.477Z,40.38
2023-02-07T09:58:32.747Z,39.69
2023-02-07T10:01:17.274Z,39.14
2023-02-07T10:04:07.643Z,39.23
2023-02-07T10:06:45.835Z,39.82
2023-02-07T10:09:27.580Z,38.83
2023-02-07T10:12:23.144Z,38.97
2023-02-07T10:15:31.276Z,38.89
2023-02-07T10:19:01.636Z,40.21
2023-02-07T10:22:05.431Z,39.28
2023-02-07T10:25:19.949Z,39.64
2023-02-07T10:28:16.079Z,39.29
2023-02-07T10:30:56.436Z,39.79
2023-02-07T10:33:35.763Z,39.75
2023-02-07T10:36:17.358Z,39.30
2023-02-07T10:39:09.398Z,39.63
2023-02-07T10:41:45.081Z,38.90
2023-02-07T10:44:20.339Z,38.93
2023-02-07T10:47:07.098Z,39.42
2023-02-07T10:49:39.907Z,39.57
2023-02-07T10:52:37.158Z,39.20
2023-02-07T10:55:13.207Z,39.94
2023-02-07T10:58:02.585Z,39.58
2023-02-07T11:00:40.535Z,39.47
2023-02-07T11:03:20.834Z,39.07
2023-02-07T11:06:02.642Z,39.94
2023-02-07T11:08:38.073Z,39.12
2023-02-07T11:11:39.489Z,40.07
2023-02-07T11:14:26.307Z,39.50
2023-02-07T11:17:01.230Z,39.11
2023-02-07T11:19:33.914Z,39.99
2023-02-07T11:22:22.883Z,39.70
2023-02-07T11:25:04.933Z,39.79
2023-02-07T11:27:41.430Z,39.48
2023-02-07T11:30:22.197Z,40.23
2023-02-07T11:33:16.379Z,40.33
2023-02-07T11:36:06.739Z,39.78
2023-02-07T11:38:50.813Z,39.30
2023-02-07T11:41:27.730Z,39.78
2023-02-07T11:44:18.137Z,39.01
2023-02-07T11:46:53.916Z,39.45
2023-02-07T11:49:40.769Z,39.47
2023-02-07T11:52:14.015Z,39.40
2023-02-07T11:55:02.680Z,39.69
2023-02-07T11:57:35.609Z,38.85
2023-02-07T12:00:25.315Z,39.85
2023-02-07T12:03:09.071Z,39.46
2023-02-07T12:05:48.262Z,39.66
2023-02-07T12:08:24.997Z,39.10
2023-02-07T12:11:05.784Z,39.42
2023-02-07T12:13:59.853Z,39.76
2023-02-07T12:16:42.094Z,39.35
2023-02-07T12:19:25.616Z,39.59
2023-02-07T12:22:18.218Z,39.73
2023-02-07T12:25:20.726Z,39.75
2023-02-07T12:28:01.085Z,38.85
2023-02-07T12:30:45.595Z,40.14
2023-02-07T12:33:31.469Z,39.85
2023-02-07T12:36:25.332Z,40.23
2023-02-07T12:39:40.885Z,39.28
2023-02-07T12:42:23.589Z,40.13
2023-02-07T12:45:01.504Z,39.59
2023-02-07T12:47:43.012Z,40.13
2023-02-07T12:50:51.271Z,39.00
2023-02-07T12:53:27.071Z,39.25
2023-02-07T12:56:20.493Z,39.24
2023-02-07T12:59:13.968Z,39.75
2023-02-07T13:03:00.109Z,39.97
2023-02-07T13:06:02.630Z,39.29
2023-02-07T13:08:50.349Z,40.18
2023-02-07T13:11:56.201Z,39.23
2023-02-07T13:14:57.897Z,40.02
2023-02-07T13:18:46.653Z,40.18
2023-02-07T13:21:51.974Z,38.86
2023-02-07T13:24:28.901Z,39.04
2023-02-07T13:27:07.666Z,39.49
2023-02-07T13:29:42.722Z,39.85
2023-02-07T13:32:27.525Z,39.91
2023-02-07T13:35:07.869Z,39.05
2023-02-07T13:38:20.415Z,38.92
2023-02-07T13:41:10.967Z,38.77
2023-02-07T13:44:09.791Z,38.75
2023-02-07T13:46:57.918Z,39.23
2023-02-07T13:50:01.576Z,39.35
2023-02-07T13:53:04.171Z,39.47
2023-02-07T13:55:41.093Z,38.88
2023-02-07T13:59:07.869Z,38.91
2023-02-07T14:01:52.488Z,39.10
2023-02-07T14:04:25.391Z,39.54
2023-02-07T14:07:08.836Z,38.69
2023-02-07T14:09:47.970Z,38.83
2023-02-07T14:12:28.923Z,39.91
2023-02-07T14:15:30.597Z,38.82
2023-02-07T14:18:26.425Z,39.24
2023-02-07T14:21:05.385Z,38.94
2023-02-07T14:24:10.260Z,38.81
2023-02-07T14:26:56.246Z,39.96
2023-02-07T14:29:28.749Z,38.85
2023-02-07T14:32:08.430Z,39.72
2023-02-07T14:35:25.476Z,39.86
2023-02-07T14:38:07.379Z,38.79
2023-02-07T14:40:43.148Z,40.04
2023-02-07T14:43:23.536Z,39.59
2023-02-07T14:45:56.028Z,38.88
2023-02-07T14:48:50.978Z,38.92
2023-02-07T14:51:32.281Z,38.78
2023-02-07T14:54:25.878Z,39.03
2023-02-07T14:57:10.327Z,38.69
2023-02-07T15:00:01.983Z,39.33
2023-02-07T15:02:41.170Z,39.16
2023-02-07T15:05:13.788Z,39.08
2023-02-07T15:07:47.952Z,39.63
2023-02-07T15:10:31.000Z,39.36
2023-02-07T15:13:35.393Z,38.96
2023-02-07T15:16:16.477Z,39.19
2023-02-07T15:19:14.540Z,38.75
2023-02-07T15:21:49.566Z,39.83
2023-02-07T15:24:58.813Z,39.71
2023-02-07T15:27:30.556Z,39.54
2023-02-07T15:30:08.408Z,39.48
2023-02-07T15:32:46.319Z,39.11
2023-02-07T15:35:27.366Z,39.76
2023-02-07T15:41:11.943Z,39.42
2023-02-07T15:44:21.197Z,39.82
2023-02-07T15:47:01.018Z,39.25
2023-02-07T15:49:41.807Z,39.93
2023-02-07T15:52:30.420Z,39.09
2023-02-07T15:55:32.635Z,40.14
2023-02-07T15:58:06.029Z,39.35
2023-02-07T16:00:41.712Z,39.31
2023-02-07T16:03:22.346Z,39.28
2023-02-07T16:06:02.261Z,40.08
2023-02-07T16:08:42.768Z,39.67
2023-02-07T16:11:36.352Z,39.50
2023-02-07T16:14:31.909Z,39.94
2023-02-07T16:17:04.413Z,39.41
2023-02-07T16:19:37.141Z,39.15
2023-02-07T16:22:19.332Z,39.11
2023-02-07T16:24:51.914Z,39.25
2023-02-07T16:27:30.098Z,39.02
2023-02-07T16:30:03.907Z,39.72
2023-02-07T16:32:36.469Z,39.52
2023-02-07T16:35:27.745Z,40.28
2023-02-07T16:38:00.360Z,39.45
2023-02-07T16:40:33.163Z,39.96
2023-02-07T16:43:07.949Z,40.03
2023-02-07T16:45:40.710Z,40.04
2023-02-07T16:48:15.322Z,40.14
2023-02-07T16:50:47.894Z,40.10
2023-02-07T16:53:20.509Z,39.91
2023-02-07T16:55:56.722Z,39.52
2023-02-07T16:58:32.337Z,39.88
2023-02-07T17:01:05.111Z,40.18
2023-02-07T17:03:37.673Z,40.34
2023-02-07T17:06:19.292Z,40.35
2023-02-07T17:08:54.255Z,39.73
2023-02-07T17:11:26.828Z,39.43
2023-02-07T17:13:59.681Z,39.31
2023-02-07T17:16:32.291Z,39.80
2023-02-07T17:19:24.644Z,40.44
2023-02-07T17:21:57.188Z,39.61
2023-02-07T17:24:31.457Z,39.33
2023-02-07T17:27:03.867Z,39.33
2023-02-07T17:29:36.403Z,39.27
2023-02-07T17:32:09.614Z,39.47
2023-02-07T17:34:42.177Z,40.09
2023-02-07T17:37:16.561Z,40.25
2023-02-07T17:39:49.342Z,39.95
2023-02-07T17:42:21.838Z,39.29
2023-02-07T17:44:54.323Z,39.35
2023-02-07T17:47:26.800Z,39.61
2023-02-07T17:49:59.304Z,39.85
2023-02-07T17:52:32.004Z,40.11
2023-02-07T17:55:05.072Z,39.17
2023-02-07T17:57:37.683Z,39.22
2023-02-07T18:00:19.326Z,40.26
2023-02-07T18:02:52.460Z,39.19
2023-02-07T18:05:25.626Z,39.27
2023-02-07T18:07:58.711Z,39.60
2023-02-07T18:10:34.891Z,39.55
2023-02-07T18:13:07.956Z,39.43
2023-02-07T18:15:40.939Z,39.03
2023-02-07T18:18:15.305Z,39.60
2023-02-07T18:20:47.871Z,39.64
2023-02-07T18:23:21.307Z,39.90
2023-02-07T18:25:53.928Z,39.59
2023-02-07T18:28:27.151Z,39.94
2023-02-07T18:30:59.740Z,39.83
2023-02-07T18:33:32.332Z,39.90
2023-02-07T18:36:06.348Z,39.30
2023-02-07T18:38:39.380Z,39.27
2023-02-07T18:41:17.517Z,39.27
2023-02-07T18:43:51.044Z,39.26
2023-02-07T18:46:23.605Z,39.25
2023-02-07T18:48:57.468Z,39.19
2023-02-07T18:51:29.977Z,39.31
2023-02-07T18:54:02.557Z,40.12
2023-02-07T18:56:35.761Z,39.53
2023-02-07T18:59:09.482Z,39.47
2023-02-07T19:01:42.241Z,39.82
2023-02-07T19:04:16.612Z,39.39
2023-02-07T19:06:50.683Z,39.46
2023-02-07T19:09:23.470Z,39.74
2023-02-07T19:12:00.223Z,39.48
2023-02-07T19:14:35.390Z,39.61
2023-02-07T19:17:08.319Z,39.58
2023-02-07T19:19:40.930Z,39.83
2023-02-07T19:22:14.203Z,40.29
2023-02-07T19:24:47.648Z,39.78
2023-02-07T19:27:20.184Z,40.05
2023-02-07T19:29:52.790Z,40.36
2023-02-07T19:32:25.382Z,39.63
2023-02-07T19:34:57.904Z,39.72
2023-02-07T19:37:30.503Z,39.83
2023-02-07T19:40:03.225Z,40.30
2023-02-07T19:42:36.141Z,40.18
2023-02-07T19:45:09.212Z,39.52
2023-02-07T19:47:41.680Z,40.03
2023-02-07T19:50:15.435Z,39.42
2023-02-07T19:52:48.013Z,40.15
2023-02-07T19:55:20.538Z,39.78
2023-02-07T19:57:54.446Z,40.33
2023-02-07T20:00:30.459Z,39.72
2023-02-07T20:03:02.960Z,39.84
2023-02-07T20:05:35.451Z,40.04
2023-02-07T20:08:08.040Z,40.01
2023-02-07T20:10:43.016Z,40.25
2023-02-07T20:13:15.881Z,39.97
2023-02-07T20:15:48.576Z,39.96
2023-02-07T20:18:21.151Z,40.14
2023-02-07T20:20:55.831Z,40.57
2023-02-07T20:23:30.895Z,40.15
2023-02-07T20:26:14.930Z,40.15
2023-02-07T20:28:48.508Z,39.81
2023-02-07T20:31:26.440Z,40.14
2023-02-07T20:33:59.738Z,39.85
2023-02-07T20:36:40.983Z,40.70
2023-02-07T20:39:19.768Z,39.95
2023-02-07T20:41:52.494Z,39.63
2023-02-07T20:44:26.567Z,39.51
2023-02-07T20:47:00.338Z,40.05
2023-02-07T20:49:33.002Z,40.19
2023-02-07T20:52:05.856Z,40.11
2023-02-07T20:54:38.422Z,39.39
2023-02-07T20:57:11.143Z,39.84
2023-02-07T20:59:43.701Z,39.81
2023-02-07T21:02:16.315Z,39.83
2023-02-07T21:04:49.073Z,39.67
2023-02-07T21:07:21.563Z,39.50
2023-02-07T21:09:54.254Z,39.26
2023-02-07T21:12:28.038Z,39.79
2023-02-07T21:15:00.772Z,39.09
2023-02-07T21:17:36.629Z,39.32
2023-02-07T21:20:09.710Z,39.61
2023-02-07T21:22:42.408Z,39.02
2023-02-07T21:25:15.325Z,39.58
2023-02-07T21:27:47.898Z,39.15
2023-02-07T21:30:20.440Z,39.37
2023-02-07T21:32:53.032Z,39.67
2023-02-07T21:35:25.535Z,39.18
2023-02-07T21:37:58.578Z,39.51
2023-02-07T21:40:31.142Z,39.46
2023-02-07T21:43:04.901Z,39.34
2023-02-07T21:45:37.423Z,39.39
2023-02-07T21:48:09.976Z,38.83
2023-02-07T21:50:42.517Z,39.05
2023-02-07T21:53:15.110Z,38.83
2023-02-07T21:55:47.664Z,39.30
2023-02-07T21:58:20.208Z,38.79
2023-02-07T22:00:52.759Z,38.75
2023-02-07T22:03:25.541Z,39.07
2023-02-07T22:05:58.101Z,38.95
2023-02-07T22:08:30.657Z,38.97
2023-02-07T22:11:11.039Z,38.92
2023-02-07T22:13:45.564Z,38.97
2023-02-07T22:16:22.053Z,39.48
2023-02-07T22:18:57.279Z,39.20
2023-02-07T22:21:35.924Z,39.47
2023-02-07T22:24:11.564Z,38.86
2023-02-07T22:26:45.060Z,39.27
2023-02-07T22:29:17.605Z,39.06
2023-02-07T22:31:50.225Z,39.21
2023-02-07T22:34:22.870Z,39.40
2023-02-07T22:36:55.463Z,39.23
2023-02-07T22:39:28.097Z,39.14
2023-02-07T22:42:00.683Z,38.89
2023-02-07T22:44:34.012Z,39.46
2023-02-07T22:47:06.556Z,38.78
2023-02-07T22:49:41.001Z,39.00
2023-02-07T22:52:13.546Z,39.37
2023-02-07T22:54:46.154Z,39.27
2023-02-07T22:57:18.765Z,39.62
2023-02-07T22:59:51.335Z,39.20
2023-02-07T23:02:23.898Z,39.43
2023-02-07T23:04:56.489Z,38.90
2023-02-07T23:07:29.095Z,39.25
2023-02-07T23:10:02.185Z,39.22
2023-02-07T23:12:35.212Z,39.27
2023-02-07T23:15:08.690Z,39.83
2023-02-07T23:17:41.694Z,39.90
2023-02-07T23:20:14.348Z,39.15
2023-02-07T23:22:46.903Z,39.82
2023-02-07T23:25:19.666Z,39.41
2023-02-07T23:27:52.254Z,39.63
2023-02-07T23:30:24.892Z,39.42
2023-02-07T23:32:57.429Z,39.63
2023-02-07T23:35:30.433Z,39.68
2023-02-07T23:38:04.068Z,39.65
2023-02-07T23:40:36.717Z,39.51
2023-02-07T23:43:09.211Z,39.39
2023-02-07T23:45:41.736Z,39.30
2023-02-07T23:48:14.380Z,39.46
2023-02-07T23:50:58.643Z,39.37
2023-02-07T23:53:31.632Z,39.85
2023-02-07T23:56:06.199Z,39.30
2023-02-07T23:58:39.536Z,39.19
